createdAt,value
2017-09-26T00:02:17.519Z,98559.70
2017-09-26T00:04:45.877Z,98560.97
2017-09-26T00:07:14.249Z,98561.28
2017-09-26T00:09:42.597Z,98560.86
2017-09-26T00:12:10.935Z,98561.34
2017-09-26T00:14:39.308Z,98565.29
2017-09-26T00:17:07.652Z,98563.59
2017-09-26T00:19:35.987Z,98563.31
2017-09-26T00:22:04.369Z,98557.80
2017-09-26T00:24:33.644Z,98562.45
2017-09-26T00:27:02.016Z,98564.55
2017-09-26T00:29:30.400Z,98558.70
2017-09-26T00:31:58.756Z,98565.48
2017-09-26T00:34:27.111Z,98562.07
2017-09-26T00:36:56.262Z,98561.66
2017-09-26T00:39:24.613Z,98562.42
2017-09-26T00:41:52.936Z,98567.13
2017-09-26T00:44:21.292Z,98563.31
2017-09-26T00:46:49.632Z,98562.29
2017-09-26T00:49:18.736Z,98555.80
2017-09-26T00:51:47.109Z,98564.33
2017-09-26T00:54:16.211Z,98568.19
2017-09-26T00:56:44.564Z,98560.77
2017-09-26T00:59:12.937Z,98559.50
2017-09-26T01:01:42.786Z,98559.10
2017-09-26T01:04:12.739Z,98566.13
2017-09-26T01:06:54.889Z,98565.80
2017-09-26T01:09:24.687Z,98567.53
2017-09-26T01:11:53.036Z,98564.77
2017-09-26T01:14:21.399Z,98566.85
2017-09-26T01:16:49.761Z,98559.63
2017-09-26T02:29:43.214Z,98552.91
2017-09-26T02:32:11.555Z,98552.86
2017-09-26T02:34:40.699Z,98555.00
2017-09-26T02:37:09.047Z,98558.37
2017-09-26T02:39:38.151Z,98549.83
2017-09-26T02:42:06.518Z,98555.58
2017-09-26T02:44:35.628Z,98552.57
2017-09-26T02:47:03.996Z,98550.41
2017-09-26T02:49:33.104Z,98546.08
2017-09-26T02:52:01.451Z,98549.55
2017-09-26T02:54:29.822Z,98543.30
2017-09-26T02:56:58.160Z,98544.84
2017-09-26T02:59:26.521Z,98546.78
2017-09-26T03:01:55.620Z,98545.78
2017-09-26T03:04:24.749Z,98541.88
2017-09-26T03:06:53.096Z,98541.81
2017-09-26T03:09:22.195Z,98542.69
2017-09-26T03:11:51.336Z,98531.91
2017-09-26T03:14:19.684Z,98543.05
2017-09-26T03:16:48.044Z,98545.64
2017-09-26T03:19:17.151Z,98540.03
2017-09-26T03:21:46.261Z,98539.10
2017-09-26T03:24:14.622Z,98539.49
2017-09-26T03:26:43.731Z,98539.05
2017-09-26T03:29:12.097Z,98538.19
2017-09-26T03:31:41.200Z,98542.03
2017-09-26T03:34:10.316Z,98538.32
2017-09-26T03:36:38.690Z,98541.23
2017-09-26T03:39:07.040Z,98551.03
2017-09-26T03:41:35.408Z,98531.77
2017-09-26T03:44:03.755Z,98542.34
2017-09-26T03:46:32.100Z,98547.08
2017-09-26T03:49:01.239Z,98549.19
2017-09-26T03:51:29.583Z,98549.21
2017-09-26T03:53:58.729Z,98554.76
2017-09-26T03:56:27.064Z,98557.80
2017-09-26T03:58:56.159Z,98556.55
2017-09-26T04:01:25.286Z,98549.66
2017-09-26T04:03:53.644Z,98558.58
2017-09-26T04:06:22.772Z,98558.01
2017-09-26T04:08:51.115Z,98557.95
2017-09-26T04:11:20.234Z,98559.21
2017-09-26T04:13:48.597Z,98557.98
2017-09-26T04:16:17.700Z,98553.16
2017-09-26T04:18:46.073Z,98558.91
2017-09-26T04:21:15.172Z,98549.02
2017-09-26T04:23:44.275Z,98553.31
2017-09-26T04:26:12.632Z,98548.58
2017-09-26T04:28:40.978Z,98551.69
2017-09-26T04:31:09.340Z,98549.94
2017-09-26T04:33:37.679Z,98556.84
2017-09-26T04:36:06.779Z,98556.92
2017-09-26T04:38:35.910Z,98550.48
2017-09-26T04:41:04.285Z,98559.56
2017-09-26T04:43:32.643Z,98555.23
2017-09-26T04:46:01.764Z,98559.02
2017-09-26T04:48:30.106Z,98555.63
2017-09-26T04:50:59.256Z,98556.12
2017-09-26T04:53:27.611Z,98559.61
2017-09-26T04:55:56.752Z,98556.31
2017-09-26T04:58:25.137Z,98561.84
2017-09-26T05:00:53.477Z,98560.94
2017-09-26T05:03:21.835Z,98565.72
2017-09-26T05:05:50.935Z,98561.81
2017-09-26T05:08:20.080Z,98563.95
2017-09-26T05:10:48.429Z,98568.13
2017-09-26T05:13:16.777Z,98566.89
2017-09-26T05:15:45.156Z,98569.47
2017-09-26T05:18:13.501Z,98572.13
2017-09-26T05:20:41.869Z,98577.32
2017-09-26T05:23:10.201Z,98577.71
2017-09-26T05:25:38.536Z,98580.24
2017-09-26T05:28:06.903Z,98581.70
2017-09-26T05:30:35.256Z,98584.53
2017-09-26T05:33:04.388Z,98580.08
2017-09-26T05:35:32.724Z,98580.58
2017-09-26T05:38:01.070Z,98588.15
2017-09-26T05:40:29.451Z,98585.44
2017-09-26T05:42:57.814Z,98591.86
2017-09-26T05:45:26.175Z,98593.22
2017-09-26T05:47:54.580Z,98594.38
2017-09-26T05:50:22.923Z,98601.27
2017-09-26T05:52:52.058Z,98591.84
2017-09-26T05:55:20.397Z,98601.64
2017-09-26T05:57:49.546Z,98601.12
2017-09-26T06:00:17.891Z,98607.92
2017-09-26T06:02:46.241Z,98599.27
2017-09-26T06:05:14.612Z,98601.78
2017-09-26T06:07:42.954Z,98608.11
2017-09-26T06:10:11.315Z,98608.09
2017-09-26T06:12:39.655Z,98605.10
2017-09-26T06:15:08.000Z,98608.45
2017-09-26T06:17:36.367Z,98610.59
2017-09-26T06:20:04.704Z,98611.82
2017-09-26T06:22:33.138Z,98617.73
2017-09-26T06:25:01.491Z,98621.57
2017-09-26T06:27:30.601Z,98622.08
2017-09-26T06:29:58.973Z,98619.02
2017-09-26T06:32:27.316Z,98627.25
2017-09-26T06:34:55.660Z,98621.26
2017-09-26T06:37:24.041Z,98625.94
2017-09-26T06:39:52.391Z,98633.45
2017-09-26T06:42:21.540Z,98635.56
2017-09-26T06:44:50.761Z,98638.92
2017-09-26T06:47:19.098Z,98637.63
2017-09-26T06:49:47.464Z,98641.50
2017-09-26T06:52:15.818Z,98641.16
2017-09-26T06:54:45.032Z,98645.00
2017-09-26T06:57:14.137Z,98647.91
2017-09-26T06:59:42.487Z,98650.89
2017-09-26T07:02:10.865Z,98651.86
2017-09-26T07:04:39.207Z,98650.48
2017-09-26T07:07:07.572Z,98654.81
2017-09-26T07:09:35.904Z,98653.48
2017-09-26T07:12:04.245Z,98656.38
2017-09-26T07:14:32.608Z,98657.46
2017-09-26T07:17:00.939Z,98663.89
2017-09-26T07:19:29.310Z,98667.72
2017-09-26T07:21:57.639Z,98666.23
2017-09-26T07:24:25.984Z,98671.27
2017-09-26T07:26:54.350Z,98670.69
2017-09-26T07:29:22.928Z,98673.20
2017-09-26T07:31:51.305Z,98671.78
2017-09-26T07:34:19.643Z,98676.44
2017-09-26T07:36:47.985Z,98673.33
2017-09-26T07:39:16.347Z,98672.83
2017-09-26T07:41:44.693Z,98678.39
2017-09-26T07:44:13.059Z,98679.59
2017-09-26T07:46:42.168Z,98680.91
2017-09-26T07:49:10.504Z,98672.16
2017-09-26T07:51:38.877Z,98674.48
2017-09-26T07:54:07.220Z,98676.49
2017-09-26T07:56:35.584Z,98673.93
2017-09-26T07:59:03.927Z,98673.76
2017-09-26T08:01:32.271Z,98673.33
2017-09-26T08:04:01.032Z,98673.20
2017-09-26T08:06:29.771Z,98670.93
2017-09-26T08:08:58.683Z,98674.67
2017-09-26T08:11:27.032Z,98668.16
2017-09-26T08:13:55.381Z,98675.78
2017-09-26T08:16:23.741Z,98673.89
2017-09-26T08:18:52.844Z,98681.78
2017-09-26T08:21:21.976Z,98680.61
2017-09-26T08:23:50.307Z,98682.13
2017-09-26T08:26:19.416Z,98681.02
2017-09-26T08:28:48.535Z,98676.81
2017-09-26T08:31:16.872Z,98679.57
2017-09-26T08:33:45.236Z,98675.42
2017-09-26T08:36:13.572Z,98667.63
2017-09-26T08:38:41.908Z,98672.12
2017-09-26T08:41:10.265Z,98676.12
2017-09-26T08:43:38.612Z,98676.55
2017-09-26T08:46:06.985Z,98677.78
2017-09-26T08:48:36.096Z,98681.66
2017-09-26T08:51:04.438Z,98684.41
2017-09-26T08:53:32.795Z,98678.39
2017-09-26T08:56:01.165Z,98682.87
2017-09-26T08:58:29.517Z,98683.37
2017-09-26T09:00:57.857Z,98685.08
2017-09-26T09:03:26.205Z,98678.17
2017-09-26T09:05:54.576Z,98681.05
2017-09-26T09:08:22.909Z,98680.74
2017-09-26T09:10:52.045Z,98681.72
2017-09-26T09:13:20.384Z,98680.42
2017-09-26T09:15:48.719Z,98680.44
2017-09-26T09:18:17.099Z,98673.09
2017-09-26T09:20:45.445Z,98676.34
2017-09-26T09:23:14.575Z,98675.28
2017-09-26T09:25:42.927Z,98675.95
2017-09-26T09:28:11.320Z,98674.42
2017-09-26T09:30:39.685Z,98682.01
2017-09-26T09:33:08.792Z,98680.28
2017-09-26T09:35:37.132Z,98677.75
2017-09-26T09:38:05.497Z,98681.52
2017-09-26T09:40:33.832Z,98678.55
2017-09-26T09:43:02.192Z,98678.77
2017-09-26T09:45:31.293Z,98676.16
2017-09-26T09:48:00.403Z,98680.87
2017-09-26T09:50:28.768Z,98673.81
2017-09-26T09:52:57.876Z,98675.78
2017-09-26T09:55:27.011Z,98677.27
2017-09-26T09:57:56.137Z,98677.72
2017-09-26T10:00:24.492Z,98679.72
2017-09-26T10:02:52.858Z,98676.92
2017-09-26T10:05:21.191Z,98671.38
2017-09-26T10:07:49.557Z,98666.98
2017-09-26T10:10:17.906Z,98669.83
2017-09-26T10:12:46.289Z,98671.44
2017-09-26T10:15:14.623Z,98667.88
2017-09-26T10:17:43.737Z,98678.73
2017-09-26T10:20:12.864Z,98674.13
2017-09-26T10:22:41.211Z,98672.83
2017-09-26T10:25:10.339Z,98675.87
2017-09-26T10:27:38.672Z,98674.37
2017-09-26T10:30:07.022Z,98669.06
2017-09-26T10:32:35.384Z,98674.63
2017-09-26T10:35:03.730Z,98669.50
2017-09-26T10:37:32.867Z,98667.66
2017-09-26T10:40:01.202Z,98674.45
2017-09-26T10:42:30.304Z,98677.38
2017-09-26T10:44:59.437Z,98672.48
2017-09-26T10:47:27.792Z,98674.39
2017-09-26T10:49:56.131Z,98676.84
2017-09-26T10:52:24.475Z,98674.78
2017-09-26T10:54:52.844Z,98674.89
2017-09-26T10:57:21.173Z,98678.13
2017-09-26T10:59:49.534Z,98675.82
2017-09-26T11:02:17.872Z,98673.02
2017-09-26T11:04:46.205Z,98667.56
2017-09-26T11:07:14.582Z,98665.08
2017-09-26T11:09:42.933Z,98665.52
2017-09-26T11:12:11.294Z,98668.67
2017-09-26T11:14:40.762Z,98667.24
2017-09-26T11:17:09.103Z,98670.17
2017-09-26T11:19:37.473Z,98659.91
2017-09-26T11:22:05.804Z,98658.80
2017-09-26T11:24:34.160Z,98658.23
2017-09-26T11:27:02.498Z,98657.86
2017-09-26T11:29:31.599Z,98653.25
2017-09-26T11:32:00.721Z,98656.29
2017-09-26T11:34:29.058Z,98652.48
2017-09-26T11:36:58.193Z,98653.38
2017-09-26T11:39:26.532Z,98646.83
2017-09-26T11:41:55.640Z,98645.83
2017-09-26T11:44:24.769Z,98647.24
2017-09-26T11:46:53.138Z,98646.73
2017-09-26T11:49:21.466Z,98650.74
2017-09-26T11:51:49.826Z,98649.80
2017-09-26T11:54:18.157Z,98648.41
2017-09-26T11:56:47.278Z,98649.98
2017-09-26T11:59:15.662Z,98645.52
2017-09-26T12:01:43.991Z,98643.78
2017-09-26T12:04:12.348Z,98641.22
2017-09-26T12:06:40.681Z,98639.41
2017-09-26T12:09:11.025Z,98639.61
2017-09-26T12:11:39.384Z,98634.97
2017-09-26T12:14:08.480Z,98632.88
2017-09-26T12:16:37.608Z,98626.38
2017-09-26T12:19:05.944Z,98624.47
2017-09-26T12:21:34.302Z,98627.91
2017-09-26T12:24:02.638Z,98630.89
2017-09-26T12:26:30.995Z,98624.94
2017-09-26T12:29:00.093Z,98624.09
2017-09-26T12:31:29.197Z,98633.18
2017-09-26T12:33:58.328Z,98626.34
2017-09-26T12:36:26.664Z,98626.66
2017-09-26T12:38:55.002Z,98623.93
2017-09-26T12:41:23.357Z,98616.25
2017-09-26T12:43:51.709Z,98623.83
2017-09-26T12:46:20.070Z,98616.36
2017-09-26T12:48:48.415Z,98618.00
2017-09-26T12:51:16.764Z,98627.12
2017-09-26T12:53:45.903Z,98622.84
2017-09-26T12:56:14.244Z,98618.19
2017-09-26T12:58:43.384Z,98614.83
2017-09-26T13:01:11.729Z,98617.18
2017-09-26T13:03:40.065Z,98615.48
2017-09-26T13:06:08.424Z,98615.95
2017-09-26T13:08:36.756Z,98616.52
2017-09-26T13:11:05.851Z,98614.47
2017-09-26T13:13:34.977Z,98615.45
2017-09-26T13:16:03.312Z,98619.16
2017-09-26T13:18:31.645Z,98615.69
2017-09-26T13:21:00.004Z,98610.27
2017-09-26T13:23:28.336Z,98610.44
2017-09-26T13:25:56.706Z,98601.23
2017-09-26T13:28:25.804Z,98600.30
2017-09-26T13:30:54.140Z,98606.16
2017-09-26T13:33:22.508Z,98601.64
2017-09-26T13:35:51.615Z,98607.61
2017-09-26T13:38:20.719Z,98603.97
2017-09-26T13:40:49.847Z,98601.00
2017-09-26T13:43:18.179Z,98602.35
2017-09-26T13:45:47.314Z,98599.98
2017-09-26T13:48:15.644Z,98603.48
2017-09-26T13:50:43.988Z,98602.72
2017-09-26T13:53:12.345Z,98604.91
2017-09-26T13:55:41.446Z,98599.06
2017-09-26T13:58:09.814Z,98601.70
2017-09-26T14:00:38.920Z,98600.48
2017-09-26T14:03:07.248Z,98600.48
2017-09-26T14:05:35.607Z,98608.63
2017-09-26T14:08:03.940Z,98606.50
2017-09-26T14:10:33.036Z,98606.06
2017-09-26T14:13:02.169Z,98610.92
2017-09-26T14:15:30.505Z,98604.72
2017-09-26T14:17:58.839Z,98603.27
2017-09-26T14:20:27.208Z,98607.51
2017-09-26T14:22:55.575Z,98613.92
2017-09-26T14:25:23.907Z,98611.50
2017-09-26T14:27:52.269Z,98610.77
2017-09-26T14:30:20.612Z,98615.45
2017-09-26T14:32:48.943Z,98614.95
2017-09-26T14:35:17.299Z,98618.13
2017-09-26T14:37:45.625Z,98620.03
2017-09-26T14:40:13.960Z,98618.19
2017-09-26T14:42:42.323Z,98622.48
2017-09-26T14:45:10.684Z,98616.83
2017-09-26T14:47:39.768Z,98623.34
2017-09-26T14:50:08.911Z,98623.30
2017-09-26T14:52:37.239Z,98634.76
2017-09-26T14:55:06.360Z,98628.56
2017-09-26T14:57:35.491Z,98637.05
2017-09-26T15:00:03.828Z,98640.38
2017-09-26T15:02:32.925Z,98635.91
2017-09-26T15:05:02.067Z,98637.77
2017-09-26T15:07:30.406Z,98649.95
2017-09-26T15:09:59.511Z,98645.89
2017-09-26T15:12:28.648Z,98648.03
2017-09-26T15:14:56.981Z,98652.48
2017-09-26T15:17:26.086Z,98647.15
2017-09-26T15:19:55.240Z,98652.67
2017-09-26T15:22:23.581Z,98651.39
2017-09-26T15:24:51.927Z,98656.02
2017-09-26T15:27:20.295Z,98660.44
2017-09-26T15:29:48.644Z,98660.66
2017-09-26T15:32:17.001Z,98667.05
2017-09-26T15:34:45.376Z,98668.69
2017-09-26T15:37:13.707Z,98664.03
2017-09-26T15:39:42.045Z,98662.28
2017-09-26T15:42:10.418Z,98662.02
2017-09-26T15:44:38.761Z,98660.57
2017-09-26T15:47:07.115Z,98660.97
2017-09-26T15:49:35.489Z,98664.09
2017-09-26T15:52:03.835Z,98659.22
2017-09-26T15:54:32.944Z,98661.45
2017-09-26T15:57:01.326Z,98667.64
2017-09-26T15:59:29.662Z,98668.78
2017-09-26T16:01:58.004Z,98660.44
2017-09-26T16:04:26.377Z,98670.70
2017-09-26T16:06:54.719Z,98674.43
2017-09-26T16:09:23.849Z,98677.63
2017-09-26T16:11:52.204Z,98680.69
2017-09-26T16:14:21.309Z,98681.54
2017-09-26T16:16:50.439Z,98676.80
2017-09-26T16:19:18.783Z,98685.58
2017-09-26T16:21:47.939Z,98687.73
2017-09-26T16:24:16.328Z,98687.30
2017-09-26T16:26:44.671Z,98684.83
2017-09-26T16:29:13.011Z,98687.59
2017-09-26T16:31:42.137Z,98686.41
2017-09-26T16:34:10.482Z,98685.66
2017-09-26T16:36:38.825Z,98690.28
2017-09-26T16:39:07.193Z,98692.95
2017-09-26T16:41:35.533Z,98692.13
2017-09-26T16:44:04.643Z,98689.23
2017-09-26T16:46:33.775Z,98690.22
2017-09-26T16:49:02.115Z,98689.27
2017-09-26T16:51:31.221Z,98690.27
2017-09-26T16:54:00.355Z,98693.77
2017-09-26T16:56:28.693Z,98697.33
2017-09-26T16:58:57.794Z,98694.44
2017-09-26T17:01:28.165Z,98692.42
2017-09-26T17:03:56.508Z,98699.97
2017-09-26T17:06:25.611Z,98697.52
2017-09-26T17:08:53.968Z,98704.14
2017-09-26T17:11:22.296Z,98708.47
2017-09-26T17:13:50.644Z,98710.70
2017-09-26T17:16:19.742Z,98704.84
2017-09-26T17:18:48.872Z,98706.34
2017-09-26T17:21:17.213Z,98707.27
2017-09-26T17:23:46.307Z,98705.20
2017-09-26T17:26:15.444Z,98709.66
2017-09-26T17:28:43.767Z,98719.73
2017-09-26T17:31:12.099Z,98724.30
2017-09-26T17:33:40.474Z,98725.81
2017-09-26T17:36:08.817Z,98728.47
2017-09-26T17:38:37.167Z,98737.14
2017-09-26T17:41:05.599Z,98737.59
2017-09-26T17:43:34.704Z,98743.77
2017-09-26T17:46:03.807Z,98745.02
2017-09-26T17:48:32.180Z,98747.16
2017-09-26T17:51:00.525Z,98748.84
2017-09-26T17:53:29.512Z,98752.25
2017-09-26T17:55:57.871Z,98747.45
2017-09-26T17:58:26.236Z,98750.90
2017-09-26T18:00:54.580Z,98751.27
2017-09-26T18:03:23.696Z,98757.20
2017-09-26T18:05:52.048Z,98749.53
2017-09-26T18:08:20.384Z,98751.19
2017-09-26T18:10:48.726Z,98755.41
2017-09-26T18:13:17.867Z,98759.55
2017-09-26T18:15:46.208Z,98753.80
2017-09-26T18:18:15.340Z,98758.52
2017-09-26T18:20:43.719Z,98762.77
2017-09-26T18:23:12.060Z,98765.89
2017-09-26T18:25:41.199Z,98771.64
2017-09-26T18:28:09.537Z,98763.30
2017-09-26T18:30:38.664Z,98766.56
2017-09-26T18:33:06.999Z,98762.32
2017-09-26T18:35:35.340Z,98768.72
2017-09-26T18:38:03.704Z,98764.91
2017-09-26T18:40:32.036Z,98771.34
2017-09-26T18:43:00.398Z,98768.34
2017-09-26T18:45:28.736Z,98769.98
2017-09-26T18:47:57.093Z,98765.73
2017-09-26T18:50:26.205Z,98764.42
2017-09-26T18:52:55.305Z,98764.91
2017-09-26T18:55:23.667Z,98775.17
2017-09-26T18:57:52.785Z,98773.40
2017-09-26T19:00:21.149Z,98772.95
2017-09-26T19:02:50.252Z,98778.12
2017-09-26T19:05:19.389Z,98770.91
2017-09-26T19:07:47.721Z,98785.16
2017-09-26T19:10:16.840Z,98782.61
2017-09-26T19:12:45.200Z,98779.23
2017-09-26T19:15:14.307Z,98774.98
2017-09-26T19:17:43.466Z,98778.52
2017-09-26T19:20:11.828Z,98777.73
2017-09-26T19:22:40.195Z,98784.23
2017-09-26T19:25:08.540Z,98787.65
2017-09-26T19:27:37.675Z,98789.39
2017-09-26T19:30:06.040Z,98787.73
2017-09-26T19:32:34.375Z,98789.52
2017-09-26T19:35:02.740Z,98792.58
2017-09-26T19:37:31.093Z,98793.50
2017-09-26T19:39:59.468Z,98793.59
2017-09-26T19:42:27.807Z,98797.95
2017-09-26T19:44:56.180Z,98794.11
2017-09-26T19:47:24.528Z,98798.45
2017-09-26T19:49:52.893Z,98797.59
2017-09-26T19:52:21.240Z,98796.80
2017-09-26T19:54:50.384Z,98791.66
2017-09-26T19:57:18.719Z,98798.53
2017-09-26T19:59:47.842Z,98803.70
2017-09-26T20:02:16.205Z,98791.84
2017-09-26T20:04:45.316Z,98794.55
2017-09-26T20:07:14.453Z,98793.32
2017-09-26T20:09:42.792Z,98794.17
2017-09-26T20:12:11.891Z,98795.08
2017-09-26T20:14:41.018Z,98792.91
2017-09-26T20:17:09.362Z,98794.61
2017-09-26T20:19:38.570Z,98794.19
2017-09-26T20:22:07.680Z,98794.19
2017-09-26T20:24:36.020Z,98793.89
2017-09-26T20:27:04.379Z,98789.97
2017-09-26T20:29:32.721Z,98795.53
2017-09-26T20:32:01.090Z,98795.61
2017-09-26T20:34:29.463Z,98794.34
2017-09-26T20:36:58.588Z,98798.27
2017-09-26T20:39:26.930Z,98799.20
2017-09-26T20:41:56.077Z,98795.02
2017-09-26T20:44:24.439Z,98802.67
2017-09-26T20:46:52.778Z,98804.34
2017-09-26T20:49:21.148Z,98795.66
2017-09-26T20:51:49.484Z,98798.61
2017-09-26T20:54:17.827Z,98801.19
2017-09-26T20:56:46.979Z,98800.11
2017-09-26T20:59:15.318Z,98801.82
2017-09-26T21:01:44.457Z,98803.46
2017-09-26T21:04:12.805Z,98803.42
2017-09-26T21:06:41.914Z,98795.30
2017-09-26T21:09:10.281Z,98783.21
2017-09-26T21:11:40.413Z,98787.90
2017-09-26T21:14:08.783Z,98790.05
2017-09-26T21:16:37.887Z,98794.05
2017-09-26T21:19:06.378Z,98793.62
2017-09-26T21:21:34.752Z,98795.33
2017-09-26T21:24:03.095Z,98786.72
2017-09-26T21:26:31.472Z,98787.97
2017-09-26T21:28:59.826Z,98798.32
2017-09-26T21:31:28.177Z,98793.17
2017-09-26T21:33:56.585Z,98790.22
2017-09-26T21:36:24.926Z,98793.76
2017-09-26T21:38:54.072Z,98794.69
2017-09-26T21:41:22.424Z,98790.76
2017-09-26T21:43:50.766Z,98787.31
2017-09-26T21:46:19.134Z,98781.03
2017-09-26T21:48:47.478Z,98794.72
2017-09-26T21:51:15.848Z,98790.91
2017-09-26T21:53:44.192Z,98799.48
2017-09-26T21:56:13.314Z,98799.48
2017-09-26T21:58:41.688Z,98793.92
2017-09-26T22:01:10.847Z,98791.33
2017-09-26T22:03:39.775Z,98797.74
2017-09-26T22:06:08.886Z,98797.33
2017-09-26T22:08:37.233Z,98803.31
2017-09-26T22:11:05.605Z,98802.88
2017-09-26T22:13:33.951Z,98809.33
2017-09-26T22:16:02.329Z,98802.90
2017-09-26T22:18:30.692Z,98805.94
2017-09-26T22:20:59.029Z,98808.06
2017-09-26T22:23:27.396Z,98805.93
2017-09-26T22:25:55.734Z,98806.76
2017-09-26T22:28:24.104Z,98802.94
2017-09-26T22:30:53.208Z,98803.77
2017-09-26T22:33:21.558Z,98805.05
2017-09-26T22:35:50.701Z,98805.08
2017-09-26T22:38:19.048Z,98808.08
2017-09-26T22:40:48.188Z,98812.34
2017-09-26T22:43:16.531Z,98810.64
2017-09-26T22:45:45.644Z,98804.63
2017-09-26T22:48:14.017Z,98813.19
2017-09-26T22:50:42.368Z,98808.07
2017-09-26T22:53:10.738Z,98799.50
2017-09-26T22:55:40.613Z,98807.64
2017-09-26T22:58:08.949Z,98808.91
2017-09-26T23:00:37.321Z,98805.47
2017-09-26T23:03:05.673Z,98811.05
2017-09-26T23:05:34.060Z,98816.64
2017-09-26T23:08:02.397Z,98815.36
2017-09-26T23:10:31.645Z,98817.05
2017-09-26T23:13:00.029Z,98814.06
2017-09-26T23:15:28.374Z,98810.63
2017-09-26T23:17:56.747Z,98811.50
2017-09-26T23:20:25.091Z,98811.48
2017-09-26T23:22:53.436Z,98810.19
2017-09-26T23:25:21.810Z,98811.47
2017-09-26T23:27:50.154Z,98804.61
2017-09-26T23:30:19.293Z,98804.61
2017-09-26T23:32:47.652Z,98805.02
2017-09-26T23:35:15.991Z,98815.30
2017-09-26T23:37:44.364Z,98813.59
2017-09-26T23:40:12.792Z,98815.73
2017-09-26T23:42:41.165Z,98813.61
2017-09-26T23:45:10.277Z,98813.63
2017-09-26T23:47:38.616Z,98814.48
2017-09-26T23:50:06.986Z,98819.20
2017-09-26T23:52:35.331Z,98821.77
2017-09-26T23:55:03.705Z,98820.48
2017-09-26T23:57:32.048Z,98817.91
